sensor_id;sensor_type;location;lat;lon;timestamp;temperature;humidity
65559;DHT22;52203;51.998;5.140;2024-02-28T00:01:48;13.14;118.99
65559;DHT22;52203;51.998;5.140;2024-02-28T00:04:14;13.14;118.99
65559;DHT22;52203;51.998;5.140;2024-02-28T00:06:39;13.12;118.99
65559;DHT22;52203;51.998;5.140;2024-02-28T00:09:05;13.08;118.99
65559;DHT22;52203;51.998;5.140;2024-02-28T00:11:30;13.11;118.99
65559;DHT22;52203;51.998;5.140;2024-02-28T00:13:56;13.09;118.99
65559;DHT22;52203;51.998;5.140;2024-02-28T00:16:21;13.14;118.99
65559;DHT22;52203;51.998;5.140;2024-02-28T00:18:47;13.14;118.99
65559;DHT22;52203;51.998;5.140;2024-02-28T00:21:12;13.15;118.99
65559;DHT22;52203;51.998;5.140;2024-02-28T00:23:38;13.12;118.99
65559;DHT22;52203;51.998;5.140;2024-02-28T00:26:06;13.11;118.99
65559;DHT22;52203;51.998;5.140;2024-02-28T00:28:31;13.10;118.99
65559;DHT22;52203;51.998;5.140;2024-02-28T00:30:57;13.08;118.99
65559;DHT22;52203;51.998;5.140;2024-02-28T00:33:22;13.07;118.99
65559;DHT22;52203;51.998;5.140;2024-02-28T00:35:48;13.05;118.99
65559;DHT22;52203;51.998;5.140;2024-02-28T00:38:13;13.07;118.99
65559;DHT22;52203;51.998;5.140;2024-02-28T00:40:39;13.06;118.99
65559;DHT22;52203;51.998;5.140;2024-02-28T00:43:04;13.06;118.99
65559;DHT22;52203;51.998;5.140;2024-02-28T00:45:30;13.21;118.99
65559;DHT22;52203;51.998;5.140;2024-02-28T00:47:56;13.81;118.99
65559;DHT22;52203;51.998;5.140;2024-02-28T00:50:21;13.29;118.99
65559;DHT22;52203;51.998;5.140;2024-02-28T00:52:47;13.22;118.99
65559;DHT22;52203;51.998;5.140;2024-02-28T00:55:12;13.25;118.99
65559;DHT22;52203;51.998;5.140;2024-02-28T00:57:40;13.27;118.99
65559;DHT22;52203;51.998;5.140;2024-02-28T01:00:06;13.29;118.99
65559;DHT22;52203;51.998;5.140;2024-02-28T01:02:32;13.45;118.99
65559;DHT22;52203;51.998;5.140;2024-02-28T01:04:58;13.61;118.99
65559;DHT22;52203;51.998;5.140;2024-02-28T01:07:26;13.07;118.99
65559;DHT22;52203;51.998;5.140;2024-02-28T01:09:51;13.64;118.99
65559;DHT22;52203;51.998;5.140;2024-02-28T01:12:17;13.54;118.99
65559;DHT22;52203;51.998;5.140;2024-02-28T01:14:43;13.60;118.99
65559;DHT22;52203;51.998;5.140;2024-02-28T01:17:08;13.70;118.99
65559;DHT22;52203;51.998;5.140;2024-02-28T01:19:34;13.76;118.99
65559;DHT22;52203;51.998;5.140;2024-02-28T01:22:00;13.73;118.99
65559;DHT22;52203;51.998;5.140;2024-02-28T01:24:25;13.70;118.99
65559;DHT22;52203;51.998;5.140;2024-02-28T01:26:51;13.68;118.99
65559;DHT22;52203;51.998;5.140;2024-02-28T01:29:17;13.69;118.99
65559;DHT22;52203;51.998;5.140;2024-02-28T01:31:42;13.67;118.99
65559;DHT22;52203;51.998;5.140;2024-02-28T01:34:08;13.49;118.99
65559;DHT22;52203;51.998;5.140;2024-02-28T01:36:33;13.40;118.99
65559;DHT22;52203;51.998;5.140;2024-02-28T01:38:59;13.34;118.99
65559;DHT22;52203;51.998;5.140;2024-02-28T01:41:24;13.32;118.99
65559;DHT22;52203;51.998;5.140;2024-02-28T01:43:50;13.31;118.99
65559;DHT22;52203;51.998;5.140;2024-02-28T01:46:28;13.30;118.99
65559;DHT22;52203;51.998;5.140;2024-02-28T01:48:57;12.90;118.99
65559;DHT22;52203;51.998;5.140;2024-02-28T01:51:24;12.86;118.99
65559;DHT22;52203;51.998;5.140;2024-02-28T01:53:52;12.88;118.99
65559;DHT22;52203;51.998;5.140;2024-02-28T01:56:19;12.89;118.99
65559;DHT22;52203;51.998;5.140;2024-02-28T01:58:46;12.88;118.99
65559;DHT22;52203;51.998;5.140;2024-02-28T02:01:16;13.03;118.99
65559;DHT22;52203;51.998;5.140;2024-02-28T02:03:45;12.94;118.99
65559;DHT22;52203;51.998;5.140;2024-02-28T02:06:11;12.93;118.99
65559;DHT22;52203;51.998;5.140;2024-02-28T02:08:37;13.10;118.99
65559;DHT22;52203;51.998;5.140;2024-02-28T02:11:04;13.48;118.99
65559;DHT22;52203;51.998;5.140;2024-02-28T02:13:30;13.45;118.99
65559;DHT22;52203;51.998;5.140;2024-02-28T02:15:55;13.52;118.99
65559;DHT22;52203;51.998;5.140;2024-02-28T02:18:21;13.49;118.99
65559;DHT22;52203;51.998;5.140;2024-02-28T02:20:54;13.53;118.99
65559;DHT22;52203;51.998;5.140;2024-02-28T02:23:21;13.62;118.99
65559;DHT22;52203;51.998;5.140;2024-02-28T02:25:47;13.60;118.99
65559;DHT22;52203;51.998;5.140;2024-02-28T02:28:13;13.63;118.99
65559;DHT22;52203;51.998;5.140;2024-02-28T02:30:40;13.63;118.99
65559;DHT22;52203;51.998;5.140;2024-02-28T02:33:07;13.59;118.99
65559;DHT22;52203;51.998;5.140;2024-02-28T02:35:35;13.64;118.99
65559;DHT22;52203;51.998;5.140;2024-02-28T02:38:01;13.70;118.99
65559;DHT22;52203;51.998;5.140;2024-02-28T02:40:27;13.66;118.99
65559;DHT22;52203;51.998;5.140;2024-02-28T02:42:52;13.63;118.99
65559;DHT22;52203;51.998;5.140;2024-02-28T02:45:18;13.60;118.99
65559;DHT22;52203;51.998;5.140;2024-02-28T02:47:44;13.63;118.99
65559;DHT22;52203;51.998;5.140;2024-02-28T02:50:09;13.29;118.99
65559;DHT22;52203;51.998;5.140;2024-02-28T02:52:35;13.09;118.99
65559;DHT22;52203;51.998;5.140;2024-02-28T02:55:01;13.03;118.99
65559;DHT22;52203;51.998;5.140;2024-02-28T02:57:26;13.01;118.99
65559;DHT22;52203;51.998;5.140;2024-02-28T02:59:55;12.97;118.99
65559;DHT22;52203;51.998;5.140;2024-02-28T03:02:20;12.91;118.99
65559;DHT22;52203;51.998;5.140;2024-02-28T03:04:46;12.90;118.99
65559;DHT22;52203;51.998;5.140;2024-02-28T03:07:14;12.88;118.99
65559;DHT22;52203;51.998;5.140;2024-02-28T03:09:40;12.87;118.99
65559;DHT22;52203;51.998;5.140;2024-02-28T03:12:06;12.85;118.99
65559;DHT22;52203;51.998;5.140;2024-02-28T03:14:32;12.87;118.99
65559;DHT22;52203;51.998;5.140;2024-02-28T03:16:57;12.84;118.99
65559;DHT22;52203;51.998;5.140;2024-02-28T03:19:25;12.81;118.99
65559;DHT22;52203;51.998;5.140;2024-02-28T03:21:51;12.86;118.99
65559;DHT22;52203;51.998;5.140;2024-02-28T03:24:16;12.89;118.99
65559;DHT22;52203;51.998;5.140;2024-02-28T03:26:42;12.88;118.99
65559;DHT22;52203;51.998;5.140;2024-02-28T03:29:08;12.85;118.99
65559;DHT22;52203;51.998;5.140;2024-02-28T03:31:35;12.84;118.99
65559;DHT22;52203;51.998;5.140;2024-02-28T03:34:00;12.87;118.99
65559;DHT22;52203;51.998;5.140;2024-02-28T03:36:28;12.86;118.99
65559;DHT22;52203;51.998;5.140;2024-02-28T03:38:53;12.86;118.99
65559;DHT22;52203;51.998;5.140;2024-02-28T03:41:19;12.85;118.99
65559;DHT22;52203;51.998;5.140;2024-02-28T03:43:45;12.89;118.99
65559;DHT22;52203;51.998;5.140;2024-02-28T03:46:10;12.93;118.99
65559;DHT22;52203;51.998;5.140;2024-02-28T03:48:36;12.88;118.99
65559;DHT22;52203;51.998;5.140;2024-02-28T03:51:01;12.90;118.99
65559;DHT22;52203;51.998;5.140;2024-02-28T03:53:27;12.93;118.99
65559;DHT22;52203;51.998;5.140;2024-02-28T03:55:52;12.92;118.99
65559;DHT22;52203;51.998;5.140;2024-02-28T03:58:18;12.91;118.99
65559;DHT22;52203;51.998;5.140;2024-02-28T04:00:44;12.91;118.99
65559;DHT22;52203;51.998;5.140;2024-02-28T04:03:09;12.93;118.99
65559;DHT22;52203;51.998;5.140;2024-02-28T04:05:35;12.94;118.99
65559;DHT22;52203;51.998;5.140;2024-02-28T04:08:01;12.93;118.99
65559;DHT22;52203;51.998;5.140;2024-02-28T04:10:26;12.94;118.99
65559;DHT22;52203;51.998;5.140;2024-02-28T04:12:52;12.96;118.99
65559;DHT22;52203;51.998;5.140;2024-02-28T04:15:17;12.95;118.99
65559;DHT22;52203;51.998;5.140;2024-02-28T04:17:43;12.94;118.99
65559;DHT22;52203;51.998;5.140;2024-02-28T04:20:12;12.95;118.99
65559;DHT22;52203;51.998;5.140;2024-02-28T04:22:38;12.94;118.99
65559;DHT22;52203;51.998;5.140;2024-02-28T04:25:07;12.99;118.99
65559;DHT22;52203;51.998;5.140;2024-02-28T04:27:34;13.00;118.99
65559;DHT22;52203;51.998;5.140;2024-02-28T04:29:59;13.00;118.99
65559;DHT22;52203;51.998;5.140;2024-02-28T04:32:25;12.97;118.99
65559;DHT22;52203;51.998;5.140;2024-02-28T04:34:51;13.00;118.99
65559;DHT22;52203;51.998;5.140;2024-02-28T04:37:17;12.99;118.99
65559;DHT22;52203;51.998;5.140;2024-02-28T04:39:42;12.97;118.99
65559;DHT22;52203;51.998;5.140;2024-02-28T04:42:08;12.97;118.99
65559;DHT22;52203;51.998;5.140;2024-02-28T04:44:33;12.99;118.99
65559;DHT22;52203;51.998;5.140;2024-02-28T04:46:59;13.00;118.99
65559;DHT22;52203;51.998;5.140;2024-02-28T04:49:27;12.99;118.99
65559;DHT22;52203;51.998;5.140;2024-02-28T04:51:53;12.97;118.99
65559;DHT22;52203;51.998;5.140;2024-02-28T04:54:18;12.96;118.99
65559;DHT22;52203;51.998;5.140;2024-02-28T04:56:44;12.99;118.99
65559;DHT22;52203;51.998;5.140;2024-02-28T04:59:11;13.00;118.99
65559;DHT22;52203;51.998;5.140;2024-02-28T05:01:38;13.00;118.99
65559;DHT22;52203;51.998;5.140;2024-02-28T05:04:08;13.00;118.99
65559;DHT22;52203;51.998;5.140;2024-02-28T05:06:34;13.00;118.99
65559;DHT22;52203;51.998;5.140;2024-02-28T05:09:00;13.01;118.99
65559;DHT22;52203;51.998;5.140;2024-02-28T05:11:34;12.99;118.99
65559;DHT22;52203;51.998;5.140;2024-02-28T05:14:00;13.01;118.99
65559;DHT22;52203;51.998;5.140;2024-02-28T05:16:25;12.97;118.99
65559;DHT22;52203;51.998;5.140;2024-02-28T05:18:51;12.97;118.99
65559;DHT22;52203;51.998;5.140;2024-02-28T05:21:16;12.97;118.99
65559;DHT22;52203;51.998;5.140;2024-02-28T05:23:45;12.95;118.99
65559;DHT22;52203;51.998;5.140;2024-02-28T05:26:10;12.99;118.99
65559;DHT22;52203;51.998;5.140;2024-02-28T05:28:36;12.99;118.99
65559;DHT22;52203;51.998;5.140;2024-02-28T05:31:21;13.00;118.99
65559;DHT22;52203;51.998;5.140;2024-02-28T05:33:47;12.97;118.99
65559;DHT22;52203;51.998;5.140;2024-02-28T05:36:12;12.97;118.99
65559;DHT22;52203;51.998;5.140;2024-02-28T05:38:38;12.99;118.99
65559;DHT22;52203;51.998;5.140;2024-02-28T05:41:03;12.97;118.99
65559;DHT22;52203;51.998;5.140;2024-02-28T05:43:29;12.99;118.99
65559;DHT22;52203;51.998;5.140;2024-02-28T05:45:55;12.96;118.99
65559;DHT22;52203;51.998;5.140;2024-02-28T05:48:20;13.00;118.99
65559;DHT22;52203;51.998;5.140;2024-02-28T05:50:46;13.00;118.99
65559;DHT22;52203;51.998;5.140;2024-02-28T05:53:11;12.99;118.99
65559;DHT22;52203;51.998;5.140;2024-02-28T05:55:37;13.03;118.99
65559;DHT22;52203;51.998;5.140;2024-02-28T05:58:03;13.04;118.99
65559;DHT22;52203;51.998;5.140;2024-02-28T06:00:29;13.01;118.99
65559;DHT22;52203;51.998;5.140;2024-02-28T06:02:57;13.01;118.99
65559;DHT22;52203;51.998;5.140;2024-02-28T06:05:22;13.03;118.99
65559;DHT22;52203;51.998;5.140;2024-02-28T06:07:48;13.04;118.99
65559;DHT22;52203;51.998;5.140;2024-02-28T06:10:13;13.04;118.99
65559;DHT22;52203;51.998;5.140;2024-02-28T06:12:39;13.03;118.99
65559;DHT22;52203;51.998;5.140;2024-02-28T06:15:05;13.04;118.99
65559;DHT22;52203;51.998;5.140;2024-02-28T06:17:31;13.02;118.99
65559;DHT22;52203;51.998;5.140;2024-02-28T06:19:57;13.06;118.99
65559;DHT22;52203;51.998;5.140;2024-02-28T06:22:22;13.04;118.99
65559;DHT22;52203;51.998;5.140;2024-02-28T06:24:48;13.05;118.99
65559;DHT22;52203;51.998;5.140;2024-02-28T06:27:13;13.05;118.99
65559;DHT22;52203;51.998;5.140;2024-02-28T06:29:41;13.06;118.99
65559;DHT22;52203;51.998;5.140;2024-02-28T06:32:07;13.08;118.99
65559;DHT22;52203;51.998;5.140;2024-02-28T06:34:33;13.07;118.99
65559;DHT22;52203;51.998;5.140;2024-02-28T06:36:59;13.06;118.99
65559;DHT22;52203;51.998;5.140;2024-02-28T06:39:24;13.07;118.99
65559;DHT22;52203;51.998;5.140;2024-02-28T06:41:50;13.05;118.99
65559;DHT22;52203;51.998;5.140;2024-02-28T06:44:18;13.08;118.99
65559;DHT22;52203;51.998;5.140;2024-02-28T06:46:44;13.06;118.99
65559;DHT22;52203;51.998;5.140;2024-02-28T06:49:09;13.11;118.99
65559;DHT22;52203;51.998;5.140;2024-02-28T06:51:35;13.10;118.99
65559;DHT22;52203;51.998;5.140;2024-02-28T06:54:00;13.12;118.99
65559;DHT22;52203;51.998;5.140;2024-02-28T06:56:26;13.19;118.99
65559;DHT22;52203;51.998;5.140;2024-02-28T06:58:52;13.22;118.99
65559;DHT22;52203;51.998;5.140;2024-02-28T07:01:20;13.22;118.99
65559;DHT22;52203;51.998;5.140;2024-02-28T07:03:46;13.21;118.99
65559;DHT22;52203;51.998;5.140;2024-02-28T07:06:13;13.22;118.99
65559;DHT22;52203;51.998;5.140;2024-02-28T07:08:39;13.24;118.99
65559;DHT22;52203;51.998;5.140;2024-02-28T07:11:04;13.25;118.99
65559;DHT22;52203;51.998;5.140;2024-02-28T07:13:32;13.24;118.99
65559;DHT22;52203;51.998;5.140;2024-02-28T07:15:58;13.29;118.99
65559;DHT22;52203;51.998;5.140;2024-02-28T07:18:24;13.23;118.99
65559;DHT22;52203;51.998;5.140;2024-02-28T07:20:56;13.16;118.99
65559;DHT22;52203;51.998;5.140;2024-02-28T07:23:22;13.79;118.99
65559;DHT22;52203;51.998;5.140;2024-02-28T07:25:47;13.90;118.99
65559;DHT22;52203;51.998;5.140;2024-02-28T07:28:13;13.74;118.99
65559;DHT22;52203;51.998;5.140;2024-02-28T07:30:38;13.20;118.99
65559;DHT22;52203;51.998;5.140;2024-02-28T07:33:07;13.90;118.99
65559;DHT22;52203;51.998;5.140;2024-02-28T07:35:44;13.68;118.99
65559;DHT22;52203;51.998;5.140;2024-02-28T07:38:10;13.51;118.99
65559;DHT22;52203;51.998;5.140;2024-02-28T07:40:35;13.46;118.99
65559;DHT22;52203;51.998;5.140;2024-02-28T07:43:01;14.07;118.99
65559;DHT22;52203;51.998;5.140;2024-02-28T07:45:27;13.77;118.99
65559;DHT22;52203;51.998;5.140;2024-02-28T07:47:52;13.68;118.99
65559;DHT22;52203;51.998;5.140;2024-02-28T07:50:18;13.58;118.99
65559;DHT22;52203;51.998;5.140;2024-02-28T07:52:43;14.15;118.99
65559;DHT22;52203;51.998;5.140;2024-02-28T07:55:09;13.91;118.99
65559;DHT22;52203;51.998;5.140;2024-02-28T07:57:34;13.73;118.99
65559;DHT22;52203;51.998;5.140;2024-02-28T08:00:00;14.09;118.99
65559;DHT22;52203;51.998;5.140;2024-02-28T08:02:26;14.23;118.99
65559;DHT22;52203;51.998;5.140;2024-02-28T08:04:51;13.92;118.99
65559;DHT22;52203;51.998;5.140;2024-02-28T08:07:17;13.97;118.99
65559;DHT22;52203;51.998;5.140;2024-02-28T08:09:42;14.23;118.99
65559;DHT22;52203;51.998;5.140;2024-02-28T08:12:08;14.21;118.99
65559;DHT22;52203;51.998;5.140;2024-02-28T08:14:34;14.20;118.99
65559;DHT22;52203;51.998;5.140;2024-02-28T08:16:59;14.22;118.99
65559;DHT22;52203;51.998;5.140;2024-02-28T08:19:25;14.17;118.99
65559;DHT22;52203;51.998;5.140;2024-02-28T08:21:50;14.04;118.99
65559;DHT22;52203;51.998;5.140;2024-02-28T08:24:16;14.15;118.99
65559;DHT22;52203;51.998;5.140;2024-02-28T08:26:41;14.11;118.99
65559;DHT22;52203;51.998;5.140;2024-02-28T08:29:07;14.11;118.99
65559;DHT22;52203;51.998;5.140;2024-02-28T08:31:33;14.05;118.99
65559;DHT22;52203;51.998;5.140;2024-02-28T08:33:58;14.18;118.99
65559;DHT22;52203;51.998;5.140;2024-02-28T08:36:24;14.21;118.99
65559;DHT22;52203;51.998;5.140;2024-02-28T08:38:49;14.30;118.99
65559;DHT22;52203;51.998;5.140;2024-02-28T08:41:17;14.29;118.99
65559;DHT22;52203;51.998;5.140;2024-02-28T08:43:42;14.13;118.99
65559;DHT22;52203;51.998;5.140;2024-02-28T08:46:08;14.00;118.99
65559;DHT22;52203;51.998;5.140;2024-02-28T08:48:34;13.99;118.99
65559;DHT22;52203;51.998;5.140;2024-02-28T08:50:59;13.98;118.99
65559;DHT22;52203;51.998;5.140;2024-02-28T08:53:25;13.95;118.99
65559;DHT22;52203;51.998;5.140;2024-02-28T08:55:51;13.93;118.99
65559;DHT22;52203;51.998;5.140;2024-02-28T08:58:17;13.97;118.99
65559;DHT22;52203;51.998;5.140;2024-02-28T09:00:43;13.98;118.99
65559;DHT22;52203;51.998;5.140;2024-02-28T09:03:08;14.00;118.99
65559;DHT22;52203;51.998;5.140;2024-02-28T09:05:34;14.04;118.99
65559;DHT22;52203;51.998;5.140;2024-02-28T09:08:00;14.04;118.99
65559;DHT22;52203;51.998;5.140;2024-02-28T09:10:26;14.00;118.99
65559;DHT22;52203;51.998;5.140;2024-02-28T09:12:54;14.09;118.99
65559;DHT22;52203;51.998;5.140;2024-02-28T09:15:20;14.21;118.99
65559;DHT22;52203;51.998;5.140;2024-02-28T09:17:45;14.33;118.99
65559;DHT22;52203;51.998;5.140;2024-02-28T09:20:11;14.32;118.99
65559;DHT22;52203;51.998;5.140;2024-02-28T09:22:37;14.40;118.99
65559;DHT22;52203;51.998;5.140;2024-02-28T09:25:06;14.17;118.99
65559;DHT22;52203;51.998;5.140;2024-02-28T09:27:34;14.13;118.99
65559;DHT22;52203;51.998;5.140;2024-02-28T09:30:00;13.88;118.99
65559;DHT22;52203;51.998;5.140;2024-02-28T09:32:28;14.24;118.99
65559;DHT22;52203;51.998;5.140;2024-02-28T09:34:53;14.10;118.99
65559;DHT22;52203;51.998;5.140;2024-02-28T09:37:19;13.76;118.99
65559;DHT22;52203;51.998;5.140;2024-02-28T09:39:48;13.66;118.99
65559;DHT22;52203;51.998;5.140;2024-02-28T09:42:15;13.73;118.99
65559;DHT22;52203;51.998;5.140;2024-02-28T09:44:42;13.94;118.99
65559;DHT22;52203;51.998;5.140;2024-02-28T09:47:08;14.15;118.99
65559;DHT22;52203;51.998;5.140;2024-02-28T09:49:35;14.45;118.99
65559;DHT22;52203;51.998;5.140;2024-02-28T09:52:03;14.19;118.99
65559;DHT22;52203;51.998;5.140;2024-02-28T09:54:28;13.84;118.99
65559;DHT22;52203;51.998;5.140;2024-02-28T09:56:55;13.75;118.99
65559;DHT22;52203;51.998;5.140;2024-02-28T09:59:23;13.97;118.99
65559;DHT22;52203;51.998;5.140;2024-02-28T10:01:56;13.34;118.99
65559;DHT22;52203;51.998;5.140;2024-02-28T10:04:24;13.38;118.99
65559;DHT22;52203;51.998;5.140;2024-02-28T10:06:51;13.55;118.99
65559;DHT22;52203;51.998;5.140;2024-02-28T10:09:19;13.32;118.99
65559;DHT22;52203;51.998;5.140;2024-02-28T10:11:45;13.38;118.99
65559;DHT22;52203;51.998;5.140;2024-02-28T10:14:11;13.58;118.99
65559;DHT22;52203;51.998;5.140;2024-02-28T10:16:37;13.58;118.99
65559;DHT22;52203;51.998;5.140;2024-02-28T10:19:05;13.51;118.99
65559;DHT22;52203;51.998;5.140;2024-02-28T10:21:31;13.67;118.99
65559;DHT22;52203;51.998;5.140;2024-02-28T10:23:59;14.12;118.99
65559;DHT22;52203;51.998;5.140;2024-02-28T10:26:25;14.54;118.99
65559;DHT22;52203;51.998;5.140;2024-02-28T10:28:54;14.27;118.99
65559;DHT22;52203;51.998;5.140;2024-02-28T10:31:21;13.52;118.99
65559;DHT22;52203;51.998;5.140;2024-02-28T10:33:46;13.75;118.99
65559;DHT22;52203;51.998;5.140;2024-02-28T10:36:12;13.83;118.99
65559;DHT22;52203;51.998;5.140;2024-02-28T10:38:38;13.50;118.99
65559;DHT22;52203;51.998;5.140;2024-02-28T10:41:04;13.40;118.99
65559;DHT22;52203;51.998;5.140;2024-02-28T10:43:30;13.45;118.99
65559;DHT22;52203;51.998;5.140;2024-02-28T10:45:59;13.31;118.99
65559;DHT22;52203;51.998;5.140;2024-02-28T10:48:25;13.25;118.99
65559;DHT22;52203;51.998;5.140;2024-02-28T10:50:52;13.18;118.99
65559;DHT22;52203;51.998;5.140;2024-02-28T10:53:22;13.27;118.99
65559;DHT22;52203;51.998;5.140;2024-02-28T10:55:49;13.47;118.99
65559;DHT22;52203;51.998;5.140;2024-02-28T10:58:18;13.40;118.99
65559;DHT22;52203;51.998;5.140;2024-02-28T11:00:47;13.45;118.99
65559;DHT22;52203;51.998;5.140;2024-02-28T11:03:16;13.51;118.99
65559;DHT22;52203;51.998;5.140;2024-02-28T11:05:44;13.73;118.99
65559;DHT22;52203;51.998;5.140;2024-02-28T11:08:21;13.70;118.99
65559;DHT22;52203;51.998;5.140;2024-02-28T11:10:47;13.71;118.99
65559;DHT22;52203;51.998;5.140;2024-02-28T11:13:26;13.76;118.99
65559;DHT22;52203;51.998;5.140;2024-02-28T11:15:52;13.67;118.99
65559;DHT22;52203;51.998;5.140;2024-02-28T11:18:18;13.69;118.99
65559;DHT22;52203;51.998;5.140;2024-02-28T11:20:44;13.66;118.99
65559;DHT22;52203;51.998;5.140;2024-02-28T11:23:14;13.64;118.99
65559;DHT22;52203;51.998;5.140;2024-02-28T11:25:42;13.62;118.99
65559;DHT22;52203;51.998;5.140;2024-02-28T11:28:08;13.62;118.99
65559;DHT22;52203;51.998;5.140;2024-02-28T11:30:34;13.67;118.99
65559;DHT22;52203;51.998;5.140;2024-02-28T11:32:59;13.65;118.99
65559;DHT22;52203;51.998;5.140;2024-02-28T11:35:28;13.78;118.99
65559;DHT22;52203;51.998;5.140;2024-02-28T11:37:57;13.78;118.99
65559;DHT22;52203;51.998;5.140;2024-02-28T11:40:25;14.41;118.99
65559;DHT22;52203;51.998;5.140;2024-02-28T11:42:54;14.38;118.99
65559;DHT22;52203;51.998;5.140;2024-02-28T11:45:20;14.40;118.99
65559;DHT22;52203;51.998;5.140;2024-02-28T11:47:46;14.44;118.99
65559;DHT22;52203;51.998;5.140;2024-02-28T11:50:13;14.49;118.99
65559;DHT22;52203;51.998;5.140;2024-02-28T11:52:40;14.53;118.99
65559;DHT22;52203;51.998;5.140;2024-02-28T11:55:06;14.49;118.99
65559;DHT22;52203;51.998;5.140;2024-02-28T11:57:31;14.43;118.99
65559;DHT22;52203;51.998;5.140;2024-02-28T12:00:06;14.39;118.99
65559;DHT22;52203;51.998;5.140;2024-02-28T12:02:31;14.45;118.99
65559;DHT22;52203;51.998;5.140;2024-02-28T12:05:00;13.97;118.99
65559;DHT22;52203;51.998;5.140;2024-02-28T12:07:26;13.94;118.99
65559;DHT22;52203;51.998;5.140;2024-02-28T12:09:58;13.90;118.99
65559;DHT22;52203;51.998;5.140;2024-02-28T12:12:24;13.86;118.99
65559;DHT22;52203;51.998;5.140;2024-02-28T12:14:52;13.81;118.99
65559;DHT22;52203;51.998;5.140;2024-02-28T12:17:18;13.75;118.99
65559;DHT22;52203;51.998;5.140;2024-02-28T12:19:44;13.76;118.99
65559;DHT22;52203;51.998;5.140;2024-02-28T12:22:10;13.77;118.99
65559;DHT22;52203;51.998;5.140;2024-02-28T12:24:36;13.66;118.99
65559;DHT22;52203;51.998;5.140;2024-02-28T12:27:02;13.51;118.99
65559;DHT22;52203;51.998;5.140;2024-02-28T12:29:28;13.68;118.99
65559;DHT22;52203;51.998;5.140;2024-02-28T12:31:53;13.74;118.99
65559;DHT22;52203;51.998;5.140;2024-02-28T12:34:19;13.66;118.99
65559;DHT22;52203;51.998;5.140;2024-02-28T12:36:44;13.64;118.99
65559;DHT22;52203;51.998;5.140;2024-02-28T12:39:10;13.68;118.99
65559;DHT22;52203;51.998;5.140;2024-02-28T12:41:37;13.62;118.99
65559;DHT22;52203;51.998;5.140;2024-02-28T12:44:05;13.48;118.99
65559;DHT22;52203;51.998;5.140;2024-02-28T12:46:30;13.49;118.99
65559;DHT22;52203;51.998;5.140;2024-02-28T12:48:56;13.59;118.99
65559;DHT22;52203;51.998;5.140;2024-02-28T12:51:40;13.50;118.99
65559;DHT22;52203;51.998;5.140;2024-02-28T12:54:07;13.61;118.99
65559;DHT22;52203;51.998;5.140;2024-02-28T12:56:37;13.47;118.99
65559;DHT22;52203;51.998;5.140;2024-02-28T12:59:03;13.51;118.99
65559;DHT22;52203;51.998;5.140;2024-02-28T13:01:29;13.36;118.99
65559;DHT22;52203;51.998;5.140;2024-02-28T13:03:55;13.39;118.99
65559;DHT22;52203;51.998;5.140;2024-02-28T13:06:21;13.43;118.99
65559;DHT22;52203;51.998;5.140;2024-02-28T13:08:47;13.45;118.99
65559;DHT22;52203;51.998;5.140;2024-02-28T13:11:18;13.50;118.99
65559;DHT22;52203;51.998;5.140;2024-02-28T13:13:45;13.52;118.99
65559;DHT22;52203;51.998;5.140;2024-02-28T13:16:10;13.55;118.99
65559;DHT22;52203;51.998;5.140;2024-02-28T13:18:36;13.51;118.99
65559;DHT22;52203;51.998;5.140;2024-02-28T13:21:01;13.48;118.99
65559;DHT22;52203;51.998;5.140;2024-02-28T13:23:30;13.48;118.99
65559;DHT22;52203;51.998;5.140;2024-02-28T13:25:57;13.49;118.99
65559;DHT22;52203;51.998;5.140;2024-02-28T13:28:22;13.74;118.99
65559;DHT22;52203;51.998;5.140;2024-02-28T13:30:59;13.63;118.99
65559;DHT22;52203;51.998;5.140;2024-02-28T13:33:24;13.60;118.99
65559;DHT22;52203;51.998;5.140;2024-02-28T13:35:50;13.55;118.99
65559;DHT22;52203;51.998;5.140;2024-02-28T13:38:17;13.75;118.99
65559;DHT22;52203;51.998;5.140;2024-02-28T13:40:42;13.59;118.99
65559;DHT22;52203;51.998;5.140;2024-02-28T13:43:10;13.63;118.99
65559;DHT22;52203;51.998;5.140;2024-02-28T13:45:37;13.65;118.99
65559;DHT22;52203;51.998;5.140;2024-02-28T13:48:03;13.68;118.99
65559;DHT22;52203;51.998;5.140;2024-02-28T13:50:29;13.63;118.99
65559;DHT22;52203;51.998;5.140;2024-02-28T13:52:57;13.61;118.99
65559;DHT22;52203;51.998;5.140;2024-02-28T13:55:23;13.59;118.99
65559;DHT22;52203;51.998;5.140;2024-02-28T13:57:48;13.59;118.99
65559;DHT22;52203;51.998;5.140;2024-02-28T14:00:14;13.58;118.99
65559;DHT22;52203;51.998;5.140;2024-02-28T14:02:40;13.52;118.99
65559;DHT22;52203;51.998;5.140;2024-02-28T14:05:06;13.53;118.99
65559;DHT22;52203;51.998;5.140;2024-02-28T14:07:35;13.62;118.99
65559;DHT22;52203;51.998;5.140;2024-02-28T14:10:03;13.66;118.99
65559;DHT22;52203;51.998;5.140;2024-02-28T14:12:29;13.73;118.99
65559;DHT22;52203;51.998;5.140;2024-02-28T14:14:54;13.55;118.99
65559;DHT22;52203;51.998;5.140;2024-02-28T14:17:20;13.58;118.99
65559;DHT22;52203;51.998;5.140;2024-02-28T14:19:45;13.55;118.99
65559;DHT22;52203;51.998;5.140;2024-02-28T14:22:13;13.48;118.99
65559;DHT22;52203;51.998;5.140;2024-02-28T14:24:39;13.45;118.99
65559;DHT22;52203;51.998;5.140;2024-02-28T14:27:05;13.56;118.99
65559;DHT22;52203;51.998;5.140;2024-02-28T14:29:31;13.43;118.99
65559;DHT22;52203;51.998;5.140;2024-02-28T14:31:57;13.51;118.99
65559;DHT22;52203;51.998;5.140;2024-02-28T14:34:22;13.47;118.99
65559;DHT22;52203;51.998;5.140;2024-02-28T14:36:48;13.29;118.99
65559;DHT22;52203;51.998;5.140;2024-02-28T14:39:15;13.37;118.99
65559;DHT22;52203;51.998;5.140;2024-02-28T14:41:44;13.36;118.99
65559;DHT22;52203;51.998;5.140;2024-02-28T14:44:13;13.40;118.99
65559;DHT22;52203;51.998;5.140;2024-02-28T14:46:40;13.38;118.99
65559;DHT22;52203;51.998;5.140;2024-02-28T14:49:06;13.66;118.99
65559;DHT22;52203;51.998;5.140;2024-02-28T14:51:34;13.40;118.99
65559;DHT22;52203;51.998;5.140;2024-02-28T14:54:00;13.36;118.99
65559;DHT22;52203;51.998;5.140;2024-02-28T14:56:26;13.36;118.99
65559;DHT22;52203;51.998;5.140;2024-02-28T14:58:54;13.36;118.99
65559;DHT22;52203;51.998;5.140;2024-02-28T15:01:20;13.37;118.99
65559;DHT22;52203;51.998;5.140;2024-02-28T15:03:46;13.38;118.99
65559;DHT22;52203;51.998;5.140;2024-02-28T15:06:14;13.37;118.99
65559;DHT22;52203;51.998;5.140;2024-02-28T15:08:42;13.43;118.99
65559;DHT22;52203;51.998;5.140;2024-02-28T15:11:08;13.46;118.99